createdAt,value
2017-09-17T00:00:15.514Z,10.34
2017-09-17T00:00:56.052Z,10.34
2017-09-17T00:01:36.593Z,10.34
2017-09-17T00:02:17.119Z,10.34
2017-09-17T00:02:57.664Z,10.34
2017-09-17T00:03:38.201Z,10.32
2017-09-17T00:04:18.722Z,10.38
2017-09-17T00:04:59.260Z,10.38
2017-09-17T00:05:39.791Z,10.44
2017-09-17T00:06:20.325Z,10.36
2017-09-17T00:07:00.873Z,10.34
2017-09-17T00:07:41.408Z,10.41
2017-09-17T00:08:21.952Z,10.36
2017-09-17T00:09:02.483Z,10.38
2017-09-17T00:09:43.017Z,10.42
2017-09-17T00:10:23.552Z,10.38
2017-09-17T00:11:04.078Z,10.38
2017-09-17T00:11:44.609Z,10.4
2017-09-17T00:12:25.147Z,10.33
2017-09-17T00:13:05.690Z,10.41
2017-09-17T00:13:46.222Z,10.32
2017-09-17T00:14:26.771Z,10.33
2017-09-17T00:15:07.313Z,10.38
2017-09-17T00:15:47.841Z,10.3
2017-09-17T00:16:28.375Z,10.4
2017-09-17T00:17:08.910Z,10.34
2017-09-17T00:17:49.443Z,10.36
2017-09-17T00:18:29.988Z,10.34
2017-09-17T00:19:10.526Z,10.34
2017-09-17T00:19:51.063Z,10.3
2017-09-17T00:20:31.602Z,10.36
2017-09-17T00:21:18.895Z,10.29
2017-09-17T00:21:59.441Z,10.3
2017-09-17T00:22:39.984Z,10.27
2017-09-17T00:23:20.553Z,10.34
2017-09-17T00:24:01.091Z,10.33
2017-09-17T00:24:41.632Z,10.3
2017-09-17T00:25:22.176Z,10.3
2017-09-17T00:26:02.712Z,10.25
2017-09-17T00:26:43.249Z,10.33
2017-09-17T00:27:23.784Z,10.3
2017-09-17T00:28:04.326Z,10.29
2017-09-17T00:28:44.862Z,10.32
2017-09-17T00:29:25.401Z,10.29
2017-09-17T00:30:05.933Z,10.3
2017-09-17T00:30:46.482Z,10.23
2017-09-17T00:31:27.000Z,10.27
2017-09-17T00:32:07.537Z,10.29
2017-09-17T00:32:48.080Z,10.26
2017-09-17T00:33:28.609Z,10.29
2017-09-17T00:34:09.144Z,10.33
2017-09-17T00:34:49.680Z,10.29
2017-09-17T00:35:30.215Z,10.33
2017-09-17T00:36:10.752Z,10.3
2017-09-17T00:36:51.291Z,10.23
2017-09-17T00:37:31.832Z,10.18
2017-09-17T00:38:12.373Z,10.27
2017-09-17T00:38:52.907Z,10.29
2017-09-17T00:39:33.444Z,10.29
2017-09-17T00:40:13.979Z,10.22
2017-09-17T00:40:54.519Z,10.2
2017-09-17T00:41:35.057Z,10.23
2017-09-17T00:42:15.595Z,10.2
2017-09-17T00:42:56.134Z,10.27
2017-09-17T00:43:36.675Z,10.25
2017-09-17T00:44:17.216Z,10.22
2017-09-17T00:44:57.749Z,10.2
2017-09-17T00:45:38.285Z,10.27
2017-09-17T00:46:18.822Z,10.23
2017-09-17T00:46:59.365Z,10.26
2017-09-17T00:47:39.901Z,10.29
2017-09-17T00:48:20.441Z,10.26
2017-09-17T00:49:00.984Z,10.26
2017-09-17T00:49:41.519Z,10.22
2017-09-17T00:50:22.062Z,10.22
2017-09-17T00:51:02.597Z,10.25
2017-09-17T00:51:43.138Z,10.26
2017-09-17T00:52:23.678Z,10.3
2017-09-17T00:53:04.214Z,10.22
2017-09-17T00:53:44.755Z,10.26
2017-09-17T00:54:25.293Z,10.23
2017-09-17T00:55:05.837Z,10.29
2017-09-17T00:55:46.372Z,10.26
2017-09-17T00:56:26.913Z,10.23
2017-09-17T00:57:07.457Z,10.25
2017-09-17T00:57:48.061Z,10.3
2017-09-17T00:58:28.597Z,10.27
2017-09-17T00:59:09.141Z,10.23
2017-09-17T00:59:49.678Z,10.23
2017-09-17T01:00:30.221Z,10.27
2017-09-17T01:01:10.758Z,10.27
2017-09-17T01:01:51.299Z,10.3
2017-09-17T01:02:31.837Z,10.23
2017-09-17T01:03:12.377Z,10.27
2017-09-17T01:03:52.917Z,10.2
2017-09-17T01:04:33.452Z,10.3
2017-09-17T01:05:13.981Z,10.26
2017-09-17T01:05:54.525Z,10.27
2017-09-17T01:06:35.063Z,10.27
2017-09-17T01:07:15.605Z,10.32
2017-09-17T01:07:56.141Z,10.3
2017-09-17T01:08:36.681Z,10.29
2017-09-17T01:09:17.221Z,10.25
2017-09-17T01:09:57.759Z,10.3
2017-09-17T01:10:38.286Z,10.3
2017-09-17T01:11:18.823Z,10.3
2017-09-17T01:11:59.370Z,10.23
2017-09-17T01:12:39.920Z,10.26
2017-09-17T01:13:20.453Z,10.27
2017-09-17T01:14:00.992Z,10.27
2017-09-17T01:14:41.531Z,10.23
2017-09-17T01:15:22.073Z,10.27
2017-09-17T01:16:02.615Z,10.3
2017-09-17T01:16:43.157Z,10.26
2017-09-17T01:17:23.696Z,10.23
2017-09-17T01:18:04.224Z,10.23
2017-09-17T01:18:44.766Z,10.3
2017-09-17T01:19:25.307Z,10.25
2017-09-17T01:20:05.839Z,10.23
2017-09-17T01:20:46.376Z,10.22
2017-09-17T01:21:26.914Z,10.23
2017-09-17T01:22:07.450Z,10.22
2017-09-17T01:22:47.991Z,10.26
2017-09-17T01:23:28.530Z,10.25
2017-09-17T01:24:09.073Z,10.22
2017-09-17T01:24:49.620Z,10.26
2017-09-17T01:25:30.160Z,10.3
2017-09-17T01:26:10.697Z,10.3
2017-09-17T01:26:51.238Z,10.25
2017-09-17T01:27:31.772Z,10.23
2017-09-17T01:28:12.306Z,10.27
2017-09-17T01:28:52.847Z,10.23
2017-09-17T01:29:33.385Z,10.3
2017-09-17T01:30:13.926Z,10.36
2017-09-17T01:30:54.465Z,10.23
2017-09-17T01:31:35.001Z,10.26
2017-09-17T01:32:15.543Z,10.3
2017-09-17T01:32:56.081Z,10.3
2017-09-17T01:33:36.614Z,10.25
2017-09-17T01:34:17.157Z,10.26
2017-09-17T01:34:57.690Z,10.3
2017-09-17T01:35:38.225Z,10.26
2017-09-17T01:36:18.764Z,10.26
2017-09-17T01:36:59.297Z,10.25
2017-09-17T01:37:39.835Z,10.22
2017-09-17T01:38:20.368Z,10.29
2017-09-17T01:39:00.915Z,10.26
2017-09-17T01:39:41.458Z,10.22
2017-09-17T01:40:21.997Z,10.18
2017-09-17T01:41:02.530Z,10.23
2017-09-17T01:41:43.075Z,10.23
2017-09-17T01:42:23.604Z,10.25
2017-09-17T01:43:04.140Z,10.25
2017-09-17T01:43:44.668Z,10.23
2017-09-17T01:44:25.206Z,10.25
2017-09-17T01:45:05.748Z,10.3
2017-09-17T01:45:46.289Z,10.29
2017-09-17T01:46:26.834Z,10.33
2017-09-17T01:47:07.400Z,10.23
2017-09-17T01:47:47.937Z,10.26
2017-09-17T01:48:28.473Z,10.3
2017-09-17T01:49:09.007Z,10.27
2017-09-17T01:49:49.554Z,10.26
2017-09-17T01:50:30.088Z,10.22
2017-09-17T01:51:10.622Z,10.25
2017-09-17T01:51:51.173Z,10.23
2017-09-17T01:52:31.684Z,10.26
2017-09-17T01:53:12.226Z,10.22
2017-09-17T01:53:52.762Z,10.25
2017-09-17T01:54:33.290Z,10.26
2017-09-17T01:55:13.834Z,10.22
2017-09-17T01:55:54.372Z,10.27
2017-09-17T01:56:34.909Z,10.23
2017-09-17T01:57:15.443Z,10.2
2017-09-17T01:57:55.988Z,10.18
2017-09-17T01:58:36.530Z,10.23
2017-09-17T01:59:17.069Z,10.22
2017-09-17T01:59:57.606Z,10.25
2017-09-17T02:00:38.135Z,10.2
2017-09-17T02:01:18.667Z,10.17
2017-09-17T02:01:59.212Z,10.15
2017-09-17T02:02:39.745Z,10.15
2017-09-17T02:03:20.283Z,10.14
2017-09-17T02:04:00.820Z,10.05
2017-09-17T02:04:41.358Z,10.07
2017-09-17T02:05:21.889Z,10.14
2017-09-17T02:06:02.431Z,10.08
2017-09-17T02:06:42.969Z,10.09
2017-09-17T02:07:23.506Z,10.12
2017-09-17T02:08:04.207Z,10.05
2017-09-17T02:08:44.833Z,10.07
2017-09-17T02:09:25.337Z,10.08
2017-09-17T02:10:05.872Z,10.04
2017-09-17T02:10:46.458Z,10.04
2017-09-17T02:11:26.997Z,9.99
2017-09-17T02:12:07.581Z,10.01
2017-09-17T02:12:48.101Z,10.02
2017-09-17T02:13:28.739Z,9.9
2017-09-17T02:14:09.214Z,9.89
2017-09-17T02:14:49.752Z,9.9
2017-09-17T02:15:30.289Z,10.01
2017-09-17T02:16:10.828Z,9.9
2017-09-17T02:16:51.349Z,9.86
2017-09-17T02:17:31.889Z,9.87
2017-09-17T02:18:12.439Z,9.87
2017-09-17T02:18:52.967Z,9.83
2017-09-17T02:19:33.498Z,9.87
2017-09-17T02:20:14.042Z,9.84
2017-09-17T02:20:54.577Z,9.79
2017-09-17T02:21:35.106Z,9.76
2017-09-17T02:22:15.641Z,9.76
2017-09-17T02:22:56.177Z,9.79
2017-09-17T02:23:36.717Z,9.84
2017-09-17T02:24:17.248Z,9.79
2017-09-17T02:24:57.792Z,9.78
2017-09-17T02:25:38.334Z,9.72
2017-09-17T02:26:18.867Z,9.78
2017-09-17T02:26:59.409Z,9.75
2017-09-17T02:27:39.962Z,9.68
2017-09-17T02:28:20.488Z,9.72
2017-09-17T02:29:01.030Z,9.61
2017-09-17T02:29:41.568Z,9.65
2017-09-17T02:30:22.101Z,9.69
2017-09-17T02:31:02.645Z,9.72
2017-09-17T02:31:43.182Z,9.69
2017-09-17T02:32:23.720Z,9.69
2017-09-17T02:33:04.253Z,9.66
2017-09-17T02:33:44.791Z,9.64
2017-09-17T02:34:25.348Z,9.53
2017-09-17T02:35:05.881Z,9.65
2017-09-17T02:35:46.419Z,9.51
2017-09-17T02:36:26.957Z,9.53
2017-09-17T02:37:07.498Z,9.54
2017-09-17T02:37:48.047Z,9.53
2017-09-17T02:38:28.567Z,9.54
2017-09-17T02:39:09.115Z,9.54
2017-09-17T02:39:49.662Z,9.48
2017-09-17T02:40:30.185Z,9.51
2017-09-17T02:41:10.726Z,9.51
2017-09-17T02:41:51.253Z,9.57
2017-09-17T02:42:31.787Z,9.53
2017-09-17T02:43:12.327Z,9.48
2017-09-17T02:43:52.857Z,9.53
2017-09-17T02:44:33.397Z,9.53
2017-09-17T02:45:13.938Z,9.51
2017-09-17T02:45:54.474Z,9.54
2017-09-17T02:46:35.007Z,9.54
2017-09-17T02:47:15.545Z,9.54
2017-09-17T02:47:56.081Z,9.51
2017-09-17T02:48:36.619Z,9.51
2017-09-17T02:49:17.161Z,9.54
2017-09-17T02:49:57.698Z,9.54
2017-09-17T02:50:38.246Z,9.54
2017-09-17T02:51:18.775Z,9.53
2017-09-17T02:51:59.319Z,9.48
2017-09-17T02:52:39.859Z,9.48
2017-09-17T02:53:20.389Z,9.53
2017-09-17T02:54:00.933Z,9.5
2017-09-17T02:54:41.480Z,9.53
2017-09-17T02:55:22.018Z,9.54
2017-09-17T02:56:02.537Z,9.53
2017-09-17T02:56:43.067Z,9.53
2017-09-17T02:57:23.616Z,9.56
2017-09-17T02:58:04.167Z,9.58
2017-09-17T02:58:44.673Z,9.56
2017-09-17T02:59:25.213Z,9.51
2017-09-17T03:00:05.749Z,9.57
2017-09-17T03:00:46.287Z,9.51
2017-09-17T03:01:26.834Z,9.54
2017-09-17T03:02:07.368Z,9.53
2017-09-17T03:02:47.899Z,9.54
2017-09-17T03:03:28.440Z,9.5
2017-09-17T03:04:08.975Z,9.58
2017-09-17T03:04:49.519Z,9.58
2017-09-17T03:05:30.055Z,9.6
2017-09-17T03:06:10.595Z,9.5
2017-09-17T03:06:51.133Z,9.53
2017-09-17T03:07:31.669Z,9.57
2017-09-17T03:08:12.201Z,9.53
2017-09-17T03:08:52.740Z,9.51
2017-09-17T03:09:33.285Z,9.54
2017-09-17T03:10:13.812Z,9.56
2017-09-17T03:10:54.359Z,9.56
2017-09-17T03:11:34.902Z,9.54
2017-09-17T03:12:15.437Z,9.54
2017-09-17T03:12:55.973Z,9.54
2017-09-17T03:13:36.507Z,9.5
2017-09-17T03:14:17.041Z,9.51
2017-09-17T03:14:57.572Z,9.56
2017-09-17T03:15:38.112Z,9.51
2017-09-17T03:16:18.687Z,9.53
2017-09-17T03:16:59.212Z,9.53
2017-09-17T03:17:39.752Z,9.43
2017-09-17T03:18:20.296Z,9.5
2017-09-17T03:19:00.831Z,9.51
2017-09-17T03:19:41.375Z,9.51
2017-09-17T03:20:21.903Z,9.54
2017-09-17T03:21:02.439Z,9.4
2017-09-17T03:21:42.983Z,9.48
2017-09-17T03:22:23.521Z,9.48
2017-09-17T03:23:04.065Z,9.5
2017-09-17T03:23:44.623Z,9.5
2017-09-17T03:24:25.134Z,9.53
2017-09-17T03:25:05.675Z,9.54
2017-09-17T03:25:46.207Z,9.53
2017-09-17T03:26:26.744Z,9.48
2017-09-17T03:27:07.287Z,9.5
2017-09-17T03:27:47.818Z,9.54
2017-09-17T03:28:28.356Z,9.53
2017-09-17T03:29:08.894Z,9.48
2017-09-17T03:29:49.497Z,9.51
2017-09-17T03:30:30.024Z,9.48
2017-09-17T03:31:10.565Z,9.51
2017-09-17T03:31:51.108Z,9.53
2017-09-17T03:32:31.643Z,9.5
2017-09-17T03:33:12.177Z,9.48
2017-09-17T03:33:52.720Z,9.5
2017-09-17T03:34:33.253Z,9.48
2017-09-17T03:35:13.784Z,9.47
2017-09-17T03:35:54.323Z,9.48
2017-09-17T03:36:34.868Z,9.5
2017-09-17T03:37:15.392Z,9.53
2017-09-17T03:37:55.942Z,9.43
2017-09-17T03:38:36.478Z,9.51
2017-09-17T03:39:17.010Z,9.47
2017-09-17T03:39:57.542Z,9.51
2017-09-17T03:40:38.086Z,9.54
2017-09-17T03:41:18.626Z,9.48
2017-09-17T03:41:59.159Z,9.51
2017-09-17T03:42:39.687Z,9.48
2017-09-17T03:43:20.233Z,9.43
2017-09-17T03:44:00.769Z,9.54
2017-09-17T03:44:41.312Z,9.53
2017-09-17T03:45:21.842Z,9.53
2017-09-17T03:46:02.380Z,9.5
2017-09-17T03:46:42.917Z,9.5
2017-09-17T03:47:23.454Z,9.5
2017-09-17T03:48:03.988Z,9.53
2017-09-17T03:48:44.531Z,9.5
2017-09-17T03:49:25.066Z,9.53
2017-09-17T03:50:05.606Z,9.5
2017-09-17T03:50:46.148Z,9.48
2017-09-17T03:51:26.681Z,9.5
2017-09-17T03:52:07.216Z,9.51
2017-09-17T03:52:47.754Z,9.5
2017-09-17T03:53:28.290Z,9.47
2017-09-17T03:54:08.826Z,9.47
2017-09-17T03:54:49.359Z,9.53
2017-09-17T03:55:29.932Z,9.51
2017-09-17T03:56:10.476Z,9.47
2017-09-17T03:56:51.012Z,9.5
2017-09-17T03:57:31.554Z,9.51
2017-09-17T03:58:12.094Z,9.53
2017-09-17T03:58:52.630Z,9.43
2017-09-17T03:59:33.168Z,9.5
2017-09-17T04:00:13.694Z,9.54
2017-09-17T04:00:54.226Z,9.48
2017-09-17T04:01:34.770Z,9.47
2017-09-17T04:02:15.295Z,9.5
2017-09-17T04:02:55.833Z,9.47
2017-09-17T04:03:36.367Z,9.51
2017-09-17T04:04:16.897Z,9.47
2017-09-17T04:04:57.422Z,9.43
2017-09-17T04:05:37.964Z,9.48
2017-09-17T04:06:18.510Z,9.51
2017-09-17T04:06:59.052Z,9.54
2017-09-17T04:07:39.587Z,9.51
2017-09-17T04:08:20.105Z,9.48
2017-09-17T04:09:00.634Z,9.48
2017-09-17T04:09:41.173Z,9.53
2017-09-17T04:10:21.718Z,9.54
2017-09-17T04:11:02.257Z,9.53
2017-09-17T04:11:42.791Z,9.5
2017-09-17T04:12:23.347Z,9.54
2017-09-17T04:13:03.885Z,9.53
2017-09-17T04:13:44.491Z,9.51
2017-09-17T04:14:25.034Z,9.58
2017-09-17T04:15:05.569Z,9.5
2017-09-17T04:15:46.125Z,9.56
2017-09-17T04:16:26.663Z,9.54
2017-09-17T04:17:07.201Z,9.66
2017-09-17T04:17:47.740Z,9.6
2017-09-17T04:18:28.283Z,9.56
2017-09-17T04:19:08.809Z,9.53
2017-09-17T04:19:49.351Z,9.58
2017-09-17T04:20:29.892Z,9.54
2017-09-17T04:21:10.434Z,9.57
2017-09-17T04:21:50.976Z,9.64
2017-09-17T04:22:31.516Z,9.65
2017-09-17T04:23:12.057Z,9.65
2017-09-17T04:23:52.911Z,9.64
2017-09-17T04:24:33.454Z,9.65
2017-09-17T04:25:13.996Z,9.61
2017-09-17T04:25:54.524Z,9.58
2017-09-17T04:26:35.059Z,9.61
2017-09-17T04:27:15.597Z,9.58
2017-09-17T04:27:56.144Z,9.71
2017-09-17T04:28:36.695Z,9.66
2017-09-17T04:29:17.242Z,9.69
2017-09-17T04:29:57.840Z,9.65
2017-09-17T04:30:38.454Z,9.66
2017-09-17T04:31:18.996Z,9.69
2017-09-17T04:31:59.530Z,9.72
2017-09-17T04:32:40.070Z,9.66
2017-09-17T04:33:20.604Z,9.64
2017-09-17T04:34:01.134Z,9.71
2017-09-17T04:34:41.667Z,9.66
2017-09-17T04:35:22.198Z,9.65
2017-09-17T04:36:02.737Z,9.68
2017-09-17T04:36:43.291Z,9.76
2017-09-17T04:37:23.832Z,9.69
2017-09-17T04:38:04.366Z,9.69
2017-09-17T04:38:44.901Z,9.66
2017-09-17T04:39:25.523Z,9.65
2017-09-17T04:40:06.185Z,9.65
2017-09-17T04:40:46.900Z,9.68
2017-09-17T04:41:28.020Z,9.65
2017-09-17T04:42:08.815Z,9.72
2017-09-17T04:42:49.401Z,9.69
2017-09-17T04:43:29.995Z,9.69
2017-09-17T04:44:10.563Z,9.69
2017-09-17T04:44:51.095Z,9.69
2017-09-17T04:45:31.631Z,9.66
2017-09-17T04:46:12.161Z,9.65
2017-09-17T04:46:52.700Z,9.66
2017-09-17T04:47:33.241Z,9.69
2017-09-17T04:48:13.775Z,9.64
2017-09-17T04:48:54.317Z,9.66
2017-09-17T04:49:34.940Z,9.64
2017-09-17T04:50:15.466Z,9.72
2017-09-17T04:50:56.002Z,9.61
2017-09-17T04:51:36.538Z,9.66
2017-09-17T04:52:17.077Z,9.65
2017-09-17T04:52:57.621Z,9.68
2017-09-17T04:53:38.160Z,9.71
2017-09-17T04:54:18.692Z,9.78
2017-09-17T04:54:59.231Z,9.79
2017-09-17T04:55:39.760Z,9.78
2017-09-17T04:56:20.320Z,9.81
2017-09-17T04:57:00.865Z,9.79
2017-09-17T04:57:41.394Z,9.79
2017-09-17T04:58:21.934Z,9.76
2017-09-17T04:59:02.469Z,9.75
2017-09-17T04:59:42.998Z,9.74
2017-09-17T05:00:23.538Z,9.74
2017-09-17T05:01:04.074Z,9.74
2017-09-17T05:01:44.610Z,9.76
2017-09-17T05:02:25.285Z,9.79
2017-09-17T05:03:05.819Z,9.86
2017-09-17T05:03:46.360Z,9.69
2017-09-17T05:04:26.920Z,9.86
2017-09-17T05:05:07.459Z,9.81
2017-09-17T05:05:47.999Z,9.86
2017-09-17T05:06:28.540Z,9.72
2017-09-17T05:07:09.077Z,9.89
2017-09-17T05:07:49.616Z,9.74
2017-09-17T05:08:30.176Z,9.79
2017-09-17T05:09:10.708Z,9.86
2017-09-17T05:09:51.250Z,9.78
2017-09-17T05:10:31.787Z,9.78
2017-09-17T05:11:12.330Z,9.81
2017-09-17T05:11:52.893Z,9.86
2017-09-17T05:12:33.418Z,9.78
2017-09-17T05:13:13.957Z,9.86
2017-09-17T05:13:54.497Z,9.79
2017-09-17T05:14:35.031Z,9.79
2017-09-17T05:15:15.568Z,9.76
2017-09-17T05:15:56.099Z,9.76
2017-09-17T05:16:36.641Z,9.72
2017-09-17T05:17:17.185Z,9.79
2017-09-17T05:17:57.723Z,9.79
2017-09-17T05:18:38.257Z,9.75
2017-09-17T05:19:18.802Z,9.79
2017-09-17T05:19:59.338Z,9.86
2017-09-17T05:20:39.869Z,9.78
2017-09-17T05:21:20.403Z,9.87
2017-09-17T05:22:00.948Z,9.76
2017-09-17T05:22:41.481Z,9.83
2017-09-17T05:23:22.021Z,9.75
2017-09-17T05:24:02.557Z,9.79
2017-09-17T05:24:43.096Z,9.83
2017-09-17T05:25:23.637Z,9.74
2017-09-17T05:26:04.155Z,9.78
2017-09-17T05:26:44.711Z,9.74
2017-09-17T05:27:25.231Z,9.79
2017-09-17T05:28:05.772Z,9.78
2017-09-17T05:28:46.335Z,9.72
2017-09-17T05:29:26.884Z,9.84
2017-09-17T05:30:07.419Z,9.83
2017-09-17T05:30:47.959Z,9.75
2017-09-17T05:31:28.493Z,9.78
2017-09-17T05:32:09.027Z,9.74
2017-09-17T05:32:49.558Z,9.79
2017-09-17T05:33:30.099Z,9.84
2017-09-17T05:34:10.663Z,9.83
2017-09-17T05:34:51.211Z,9.86
2017-09-17T05:35:31.745Z,9.79
2017-09-17T05:36:12.295Z,9.79
2017-09-17T05:36:52.853Z,9.78
2017-09-17T05:37:33.428Z,9.83
2017-09-17T05:38:13.990Z,9.79
2017-09-17T05:38:54.535Z,9.79
2017-09-17T05:39:35.070Z,9.84
2017-09-17T05:40:15.615Z,9.78
2017-09-17T05:40:56.149Z,9.83
2017-09-17T05:41:36.687Z,9.76
2017-09-17T05:42:17.224Z,9.72
2017-09-17T05:42:57.773Z,9.83
2017-09-17T05:43:38.308Z,9.83
2017-09-17T05:44:18.844Z,9.74
2017-09-17T05:44:59.386Z,9.79
2017-09-17T05:45:39.923Z,9.78
2017-09-17T05:46:20.492Z,9.83
2017-09-17T05:47:01.017Z,9.9
2017-09-17T05:47:41.553Z,9.76
2017-09-17T05:48:22.214Z,9.78
2017-09-17T05:49:02.879Z,9.84
2017-09-17T05:49:43.424Z,9.78
2017-09-17T05:50:23.962Z,9.9
2017-09-17T05:51:04.508Z,9.87
2017-09-17T05:51:45.063Z,9.87
2017-09-17T05:52:25.602Z,9.86
2017-09-17T05:53:06.144Z,9.91
2017-09-17T05:53:46.678Z,9.89
2017-09-17T05:54:27.210Z,9.86
2017-09-17T05:55:07.783Z,9.87
2017-09-17T05:55:48.361Z,9.86
2017-09-17T05:56:28.901Z,9.9
2017-09-17T05:57:09.436Z,9.87
2017-09-17T05:57:49.995Z,9.9
2017-09-17T05:58:30.621Z,9.96
2017-09-17T05:59:11.157Z,9.9
2017-09-17T05:59:51.697Z,9.97
2017-09-17T06:00:32.238Z,9.99
2017-09-17T06:01:12.774Z,9.94
2017-09-17T06:01:53.315Z,9.97
2017-09-17T06:02:33.856Z,9.91
2017-09-17T06:03:14.388Z,9.87
2017-09-17T06:03:54.926Z,9.9
2017-09-17T06:04:35.460Z,9.96
2017-09-17T06:05:16.002Z,10.01
2017-09-17T06:05:56.537Z,10.07
2017-09-17T06:06:37.071Z,9.99
2017-09-17T06:07:17.599Z,10.08
2017-09-17T06:07:58.126Z,10.04
2017-09-17T06:08:38.669Z,9.99
2017-09-17T06:09:19.215Z,10.05
2017-09-17T06:09:59.747Z,10.05
2017-09-17T06:10:40.343Z,10.04
2017-09-17T06:11:20.960Z,10.08
2017-09-17T06:12:01.502Z,10.08
2017-09-17T06:12:42.110Z,10.17
2017-09-17T06:13:22.633Z,10.04
2017-09-17T06:14:03.209Z,10.04
2017-09-17T06:14:43.812Z,10.14
2017-09-17T06:15:24.456Z,10.14
2017-09-17T06:16:05.043Z,10.15
2017-09-17T06:16:45.611Z,10.11
2017-09-17T06:17:26.209Z,10.18
2017-09-17T06:18:06.920Z,10.18
2017-09-17T06:18:47.467Z,10.15
2017-09-17T06:19:28.004Z,10.23
2017-09-17T06:20:08.590Z,10.25
2017-09-17T06:20:49.160Z,10.27
2017-09-17T06:21:29.838Z,10.27
2017-09-17T06:22:10.434Z,10.27
2017-09-17T06:22:51.024Z,10.25
2017-09-17T06:23:31.556Z,10.34
2017-09-17T06:24:12.208Z,10.26
2017-09-17T06:24:52.753Z,10.33
2017-09-17T06:25:33.347Z,10.34
2017-09-17T06:26:13.955Z,10.36
2017-09-17T06:26:54.573Z,10.29
2017-09-17T06:27:35.101Z,10.32
2017-09-17T06:28:15.750Z,10.32
2017-09-17T06:28:56.327Z,10.42
2017-09-17T06:29:36.976Z,10.4
2017-09-17T06:30:17.585Z,10.38
2017-09-17T06:30:58.192Z,10.4
2017-09-17T06:31:38.917Z,10.41
2017-09-17T06:32:19.657Z,10.4
2017-09-17T06:33:00.194Z,10.42
2017-09-17T06:33:40.886Z,10.38
2017-09-17T06:34:21.585Z,10.38
2017-09-17T06:35:02.113Z,10.41
2017-09-17T06:35:42.739Z,10.38
2017-09-17T06:36:23.298Z,10.4
2017-09-17T06:37:03.980Z,10.42
2017-09-17T06:37:44.511Z,10.47
2017-09-17T06:38:25.048Z,10.41
2017-09-17T06:39:05.673Z,10.42
2017-09-17T06:39:46.501Z,10.4
2017-09-17T06:40:27.192Z,10.4
2017-09-17T06:41:07.826Z,10.32
2017-09-17T06:41:48.503Z,10.27
2017-09-17T06:42:29.173Z,10.3
2017-09-17T06:43:09.986Z,10.3
2017-09-17T06:43:50.712Z,10.41
2017-09-17T06:44:31.297Z,10.34
2017-09-17T06:45:12.074Z,10.36
2017-09-17T06:45:52.686Z,10.34
2017-09-17T06:46:33.429Z,10.4
2017-09-17T06:47:14.109Z,10.38
2017-09-17T06:47:54.769Z,10.4
2017-09-17T06:48:35.374Z,10.36
2017-09-17T06:49:15.916Z,10.44
2017-09-17T06:49:56.478Z,10.41
2017-09-17T06:50:36.985Z,10.47
2017-09-17T06:51:17.531Z,10.51
2017-09-17T06:51:58.076Z,10.42
2017-09-17T06:52:38.616Z,10.44
2017-09-17T06:53:19.149Z,10.51
2017-09-17T06:53:59.680Z,10.55
2017-09-17T06:54:40.219Z,10.51
2017-09-17T06:55:20.761Z,10.59
2017-09-17T06:56:01.289Z,10.59
2017-09-17T06:56:41.825Z,10.59
2017-09-17T06:57:22.360Z,10.6
2017-09-17T06:58:02.886Z,10.59
2017-09-17T06:58:43.426Z,10.63
2017-09-17T06:59:23.967Z,10.63
2017-09-17T07:00:04.507Z,10.67
2017-09-17T07:00:45.050Z,10.63
2017-09-17T07:01:25.582Z,10.64
2017-09-17T07:02:06.116Z,10.61
2017-09-17T07:02:46.654Z,10.68
2017-09-17T07:03:27.189Z,10.68
2017-09-17T07:04:07.724Z,10.63
2017-09-17T07:04:48.269Z,10.66
2017-09-17T07:05:28.804Z,10.7
2017-09-17T07:06:09.393Z,10.78
2017-09-17T07:06:49.921Z,10.7
2017-09-17T07:07:30.457Z,10.82
2017-09-17T07:08:11.004Z,10.78
2017-09-17T07:08:51.539Z,10.82
2017-09-17T07:09:32.105Z,10.78
2017-09-17T07:10:12.620Z,10.76
2017-09-17T07:10:53.151Z,10.76
2017-09-17T07:11:33.682Z,10.78
2017-09-17T07:12:14.226Z,10.76
2017-09-17T07:12:54.777Z,10.81
2017-09-17T07:13:35.309Z,10.73
2017-09-17T07:14:15.857Z,10.74
2017-09-17T07:14:56.394Z,10.71
2017-09-17T07:15:36.934Z,10.79
2017-09-17T07:16:17.465Z,10.84
2017-09-17T07:16:58.008Z,10.81
2017-09-17T07:17:38.535Z,10.81
2017-09-17T07:18:19.072Z,10.84
2017-09-17T07:18:59.610Z,10.79
2017-09-17T07:19:40.147Z,10.81
2017-09-17T07:20:20.693Z,10.86
2017-09-17T07:21:01.229Z,10.86
2017-09-17T07:21:41.770Z,10.81
2017-09-17T07:22:22.307Z,10.91
2017-09-17T07:23:02.844Z,10.89
2017-09-17T07:23:43.401Z,10.91
2017-09-17T07:24:23.920Z,10.86
2017-09-17T07:25:04.456Z,10.89
2017-09-17T07:25:44.995Z,11
2017-09-17T07:26:25.538Z,10.97
2017-09-17T07:27:06.076Z,11.03
2017-09-17T07:27:46.597Z,11.07
2017-09-17T07:28:27.142Z,11.18
2017-09-17T07:29:07.684Z,11.14
2017-09-17T07:29:48.224Z,11.15
2017-09-17T07:30:28.756Z,11.06
2017-09-17T07:31:09.297Z,11.22
2017-09-17T07:31:49.836Z,11.15
2017-09-17T07:32:30.389Z,11.22
2017-09-17T07:33:10.925Z,11.25
2017-09-17T07:33:51.471Z,11.39
2017-09-17T07:34:31.999Z,11.29
2017-09-17T07:35:12.539Z,11.35
2017-09-17T07:35:53.079Z,11.43
2017-09-17T07:36:33.614Z,11.47
2017-09-17T07:37:14.152Z,11.49
2017-09-17T07:37:54.696Z,11.49
2017-09-17T07:38:35.233Z,11.58
2017-09-17T07:39:15.777Z,11.49
2017-09-17T07:39:56.311Z,11.51
2017-09-17T07:40:36.850Z,11.49
2017-09-17T07:41:17.382Z,11.55
2017-09-17T07:41:57.921Z,11.54
2017-09-17T07:42:38.446Z,11.58
2017-09-17T07:43:18.971Z,11.39
2017-09-17T07:43:59.507Z,11.37
2017-09-17T07:44:40.053Z,11.42
2017-09-17T07:45:20.587Z,11.4
2017-09-17T07:46:01.123Z,11.42
2017-09-17T07:46:41.662Z,11.35
2017-09-17T07:47:22.207Z,11.4
2017-09-17T07:48:02.733Z,11.39
2017-09-17T07:48:43.278Z,11.33
2017-09-17T07:49:23.808Z,11.39
2017-09-17T07:50:04.347Z,11.37
2017-09-17T07:50:44.891Z,11.39
2017-09-17T07:51:25.437Z,11.4
2017-09-17T07:52:05.979Z,11.46
2017-09-17T07:52:46.535Z,11.47
2017-09-17T07:53:27.072Z,11.52
2017-09-17T07:54:07.619Z,11.57
2017-09-17T07:54:48.162Z,11.51
2017-09-17T07:55:28.699Z,11.39
2017-09-17T07:56:09.236Z,11.51
2017-09-17T07:56:49.773Z,11.51
2017-09-17T07:57:30.308Z,11.55
2017-09-17T07:58:10.854Z,11.57
2017-09-17T07:58:51.390Z,11.49
2017-09-17T07:59:31.930Z,11.52
2017-09-17T08:00:12.468Z,11.52
2017-09-17T08:00:53.008Z,11.6
2017-09-17T08:01:33.539Z,11.51
2017-09-17T08:02:14.063Z,11.49
2017-09-17T08:02:54.602Z,11.61
2017-09-17T08:03:35.141Z,11.64
2017-09-17T08:04:15.679Z,11.65
2017-09-17T08:04:56.224Z,11.64
2017-09-17T08:05:36.763Z,11.57
2017-09-17T08:06:17.296Z,11.57
2017-09-17T08:06:57.842Z,11.58
2017-09-17T08:07:38.376Z,11.6
2017-09-17T08:08:18.917Z,11.54
2017-09-17T08:08:59.454Z,11.55
2017-09-17T08:09:39.995Z,11.55
2017-09-17T08:10:20.533Z,11.52
2017-09-17T08:11:01.076Z,11.52
2017-09-17T08:11:41.624Z,11.62
2017-09-17T08:12:22.148Z,11.65
2017-09-17T08:13:02.680Z,11.64
2017-09-17T08:13:43.219Z,11.62
2017-09-17T08:14:23.765Z,11.64
2017-09-17T08:15:04.310Z,11.62
2017-09-17T08:15:44.852Z,11.64
2017-09-17T08:16:25.388Z,11.67
2017-09-17T08:17:05.929Z,11.69
2017-09-17T08:17:46.460Z,11.72
2017-09-17T08:18:27.002Z,11.75
2017-09-17T08:19:07.566Z,11.72
2017-09-17T08:19:48.090Z,11.72
2017-09-17T08:20:28.618Z,11.7
2017-09-17T08:21:09.157Z,11.76
2017-09-17T08:21:49.700Z,11.75
2017-09-17T08:22:30.247Z,11.69
2017-09-17T08:23:10.785Z,11.73
2017-09-17T08:23:51.328Z,11.75
2017-09-17T08:24:31.862Z,11.7
2017-09-17T08:25:12.403Z,11.7
2017-09-17T08:25:52.929Z,11.72
2017-09-17T08:26:33.475Z,11.78
2017-09-17T08:27:14.014Z,11.76
2017-09-17T08:27:54.619Z,11.79
2017-09-17T08:28:35.160Z,11.9
2017-09-17T08:29:15.688Z,11.83
2017-09-17T08:29:56.233Z,11.85
2017-09-17T08:30:36.779Z,11.91
2017-09-17T08:31:17.315Z,11.91
2017-09-17T08:31:57.860Z,11.91
2017-09-17T08:32:38.387Z,11.98
2017-09-17T08:33:18.929Z,12.04
2017-09-17T08:33:59.457Z,12.05
2017-09-17T08:34:40.002Z,12.02
2017-09-17T08:35:20.537Z,12.09
2017-09-17T08:36:01.086Z,12.02
2017-09-17T08:36:41.643Z,12.13
2017-09-17T08:37:22.182Z,12.1
2017-09-17T08:38:02.725Z,12.19
2017-09-17T08:38:43.269Z,12.16
2017-09-17T08:39:23.808Z,12.23
2017-09-17T08:40:04.351Z,12.31
2017-09-17T08:40:44.880Z,12.34
2017-09-17T08:41:25.424Z,12.37
2017-09-17T08:42:05.960Z,12.34
2017-09-17T08:42:46.514Z,12.35
2017-09-17T08:43:27.053Z,12.32
2017-09-17T08:44:07.597Z,12.41
2017-09-17T08:44:48.146Z,12.42
2017-09-17T08:45:28.681Z,12.47
2017-09-17T08:46:09.225Z,12.53
2017-09-17T08:46:49.769Z,12.62
2017-09-17T08:47:30.309Z,12.64
2017-09-17T08:48:10.919Z,12.6
2017-09-17T08:48:51.460Z,12.6
2017-09-17T08:49:32.003Z,12.57
2017-09-17T08:50:12.536Z,12.65
2017-09-17T08:50:53.077Z,12.65
2017-09-17T08:51:33.612Z,12.65